createdAt,value
2023-03-04T00:00:30.933Z,22.17
2023-03-04T00:02:57.851Z,23.27
2023-03-04T00:05:24.870Z,23.00
2023-03-04T00:07:51.816Z,23.27
2023-03-04T00:10:18.827Z,22.20
2023-03-04T00:12:45.806Z,23.17
2023-03-04T00:15:12.698Z,23.00
2023-03-04T00:17:39.613Z,22.40
2023-03-04T00:20:07.630Z,21.87
2023-03-04T00:22:34.473Z,21.20
2023-03-04T00:25:01.533Z,21.13
2023-03-04T00:27:28.584Z,22.90
2023-03-04T00:29:56.610Z,22.80
2023-03-04T00:32:23.614Z,22.60
2023-03-04T00:34:50.565Z,23.90
2023-03-04T00:37:17.550Z,22.17
2023-03-04T00:39:44.570Z,22.57
2023-03-04T00:42:11.516Z,22.60
2023-03-04T00:44:38.420Z,22.40
2023-03-04T00:47:05.358Z,23.60
2023-03-04T00:49:32.414Z,22.73
2023-03-04T00:51:59.335Z,22.60
2023-03-04T00:54:26.277Z,23.23
2023-03-04T00:56:53.184Z,21.10
2023-03-04T00:59:20.153Z,22.03
2023-03-04T01:01:47.075Z,23.33
2023-03-04T01:04:13.971Z,22.70
2023-03-04T01:06:41.075Z,21.60
2023-03-04T01:09:08.485Z,22.77
2023-03-04T01:11:35.344Z,21.37
2023-03-04T01:14:03.452Z,22.67
2023-03-04T01:16:30.419Z,21.93
2023-03-04T01:18:57.422Z,23.73
2023-03-04T01:21:24.341Z,23.50
2023-03-04T01:23:51.320Z,23.60
2023-03-04T01:26:18.193Z,22.50
2023-03-04T01:28:45.087Z,21.90
2023-03-04T01:31:12.092Z,23.90
2023-03-04T01:33:39.112Z,23.70
2023-03-04T01:36:06.420Z,23.97
2023-03-04T01:38:33.319Z,22.47
2023-03-04T01:41:00.394Z,22.10
2023-03-04T01:43:30.521Z,21.23
2023-03-04T01:45:58.814Z,21.50
2023-03-04T01:48:36.539Z,22.37
2023-03-04T01:51:12.443Z,22.93
2023-03-04T01:53:39.530Z,20.70
2023-03-04T01:56:16.957Z,22.20
2023-03-04T01:58:43.989Z,22.80
2023-03-04T02:01:14.639Z,22.70
2023-03-04T02:03:41.635Z,23.27
2023-03-04T02:06:08.714Z,22.00
2023-03-04T02:08:35.985Z,20.97
2023-03-04T02:11:02.929Z,20.80
2023-03-04T02:13:29.893Z,21.90
2023-03-04T02:15:56.808Z,22.73
2023-03-04T02:18:24.806Z,22.50
2023-03-04T02:21:07.645Z,20.70
2023-03-04T02:24:17.744Z,20.93
2023-03-04T02:26:46.867Z,20.90
2023-03-04T02:29:16.901Z,21.63
2023-03-04T02:31:47.777Z,22.20
2023-03-04T02:34:24.888Z,22.33
2023-03-04T02:36:54.007Z,22.63
2023-03-04T02:39:36.349Z,22.23
2023-03-04T02:42:04.433Z,21.60
2023-03-04T02:44:35.231Z,21.87
2023-03-04T02:47:04.373Z,21.93
2023-03-04T02:49:33.700Z,22.00
2023-03-04T02:52:09.095Z,20.00
2023-03-04T02:54:38.051Z,21.80
2023-03-04T02:57:09.137Z,21.33
2023-03-04T02:59:38.474Z,22.20
2023-03-04T03:02:06.726Z,21.97
2023-03-04T03:04:35.116Z,23.03
2023-03-04T03:07:02.148Z,21.17
2023-03-04T03:09:29.289Z,22.00
2023-03-04T03:11:56.253Z,21.57
2023-03-04T03:14:23.181Z,21.37
2023-03-04T03:16:50.117Z,23.00
2023-03-04T03:19:17.157Z,20.00
2023-03-04T03:21:44.026Z,21.23
2023-03-04T03:24:10.970Z,21.60
2023-03-04T03:26:39.907Z,21.20
2023-03-04T03:29:06.802Z,21.30
2023-03-04T03:31:33.722Z,21.33
2023-03-04T03:34:00.704Z,22.17
2023-03-04T03:36:27.746Z,21.40
2023-03-04T03:38:54.826Z,22.90
2023-03-04T03:41:21.709Z,21.07
2023-03-04T03:43:48.712Z,21.30
2023-03-04T03:46:15.628Z,22.63
2023-03-04T03:48:42.505Z,22.80
2023-03-04T03:51:09.441Z,20.33
2023-03-04T03:53:36.366Z,21.17
2023-03-04T03:56:03.513Z,19.13
2023-03-04T03:58:30.579Z,20.80
2023-03-04T04:00:58.515Z,19.83
2023-03-04T04:03:26.057Z,20.23
2023-03-04T04:05:53.181Z,21.23
2023-03-04T04:08:20.174Z,20.27
2023-03-04T04:10:47.086Z,22.63
2023-03-04T04:13:14.181Z,20.30
2023-03-04T04:15:41.141Z,20.03
2023-03-04T04:18:08.622Z,20.27
2023-03-04T04:20:36.036Z,21.20
2023-03-04T04:23:04.115Z,21.83
2023-03-04T04:25:31.256Z,21.00
2023-03-04T04:27:58.170Z,21.90
2023-03-04T04:30:25.503Z,21.60
2023-03-04T04:32:52.441Z,21.50
2023-03-04T04:35:19.661Z,19.90
2023-03-04T04:37:47.070Z,20.70
2023-03-04T04:40:14.217Z,20.23
2023-03-04T04:42:41.323Z,21.40
2023-03-04T04:45:09.127Z,22.57
2023-03-04T04:47:36.181Z,21.90
2023-03-04T04:50:04.025Z,22.60
2023-03-04T04:52:31.194Z,21.13
2023-03-04T04:54:58.336Z,19.80
2023-03-04T04:57:25.545Z,20.77
2023-03-04T04:59:52.509Z,20.97
2023-03-04T05:02:19.388Z,21.83
2023-03-04T05:04:46.604Z,20.70
2023-03-04T05:07:13.547Z,18.13
2023-03-04T05:09:40.447Z,18.70
2023-03-04T05:12:07.514Z,19.43
2023-03-04T05:14:34.460Z,19.53
2023-03-04T05:17:01.401Z,17.03
2023-03-04T05:19:28.410Z,17.93
2023-03-04T05:21:55.345Z,18.70
2023-03-04T05:24:22.335Z,19.13
2023-03-04T05:26:49.257Z,17.93
2023-03-04T05:29:16.129Z,19.77
2023-03-04T05:31:42.991Z,19.67
2023-03-04T05:34:09.873Z,18.73
2023-03-04T05:36:36.933Z,19.83
2023-03-04T05:39:03.986Z,19.93
2023-03-04T05:41:30.923Z,20.73
2023-03-04T05:43:57.888Z,20.37
2023-03-04T05:46:25.658Z,18.50
2023-03-04T05:48:54.505Z,19.93
2023-03-04T05:51:22.712Z,20.53
2023-03-04T05:53:49.969Z,19.10
2023-03-04T05:56:19.814Z,19.30
2023-03-04T05:58:50.299Z,19.57
2023-03-04T06:01:18.436Z,20.90
2023-03-04T06:03:45.396Z,20.93
2023-03-04T06:06:12.394Z,20.50
2023-03-04T06:08:39.519Z,23.47
2023-03-04T06:11:07.094Z,22.57
2023-03-04T06:13:34.770Z,21.53
2023-03-04T06:16:02.083Z,22.70
2023-03-04T06:18:29.493Z,22.80
2023-03-04T06:21:02.215Z,21.97
2023-03-04T06:23:30.856Z,23.70
2023-03-04T06:26:00.129Z,25.47
2023-03-04T06:28:28.208Z,21.70
2023-03-04T06:30:56.854Z,21.53
2023-03-04T06:33:24.400Z,23.50
2023-03-04T06:35:55.780Z,32.17
2023-03-04T06:38:24.034Z,21.37
2023-03-04T06:40:51.124Z,19.80
2023-03-04T06:43:18.720Z,21.67
2023-03-04T06:45:45.661Z,51.67
2023-03-04T06:48:13.138Z,187.00
2023-03-04T06:50:41.056Z,80.33
2023-03-04T06:53:07.955Z,28.60
2023-03-04T06:55:34.881Z,24.50
2023-03-04T06:58:01.889Z,31.23
2023-03-04T07:00:28.873Z,23.47
2023-03-04T07:02:55.792Z,31.37
2023-03-04T07:05:22.672Z,25.30
2023-03-04T07:07:50.544Z,23.83
2023-03-04T07:10:20.407Z,23.50
2023-03-04T07:12:47.660Z,22.00
2023-03-04T07:15:14.581Z,20.77
2023-03-04T07:17:41.602Z,22.27
2023-03-04T07:20:09.675Z,20.00
2023-03-04T07:22:36.924Z,21.07
2023-03-04T07:25:05.685Z,19.43
2023-03-04T07:27:32.553Z,21.63
2023-03-04T07:29:59.623Z,19.33
2023-03-04T07:32:26.973Z,22.37
2023-03-04T07:34:55.329Z,21.73
2023-03-04T07:37:22.458Z,21.60
2023-03-04T07:39:49.505Z,20.10
2023-03-04T07:42:16.541Z,21.50
2023-03-04T07:44:43.468Z,22.57
2023-03-04T07:47:10.391Z,23.80
2023-03-04T07:49:37.379Z,23.70
2023-03-04T07:52:06.027Z,23.20
2023-03-04T07:54:33.349Z,24.90
2023-03-04T07:57:00.374Z,23.40
2023-03-04T07:59:27.382Z,24.47
2023-03-04T08:01:54.341Z,24.00
2023-03-04T08:04:21.410Z,23.90
2023-03-04T08:06:48.934Z,25.33
2023-03-04T08:09:15.859Z,21.83
2023-03-04T08:11:42.866Z,22.23
2023-03-04T08:14:12.777Z,22.70
2023-03-04T08:16:40.513Z,23.70
2023-03-04T08:19:08.217Z,22.70
2023-03-04T08:21:35.862Z,21.80
2023-03-04T08:24:08.458Z,25.40
2023-03-04T08:26:44.573Z,24.20
2023-03-04T08:29:21.134Z,24.10
2023-03-04T08:31:51.435Z,23.90
2023-03-04T08:34:20.791Z,23.37
2023-03-04T08:36:48.322Z,22.70
2023-03-04T08:39:18.219Z,23.03
2023-03-04T08:41:46.540Z,23.53
2023-03-04T08:44:13.953Z,24.70
2023-03-04T08:46:44.267Z,23.90
2023-03-04T08:49:12.951Z,24.83
2023-03-04T08:51:39.926Z,24.30
2023-03-04T08:54:07.188Z,23.40
2023-03-04T08:56:34.136Z,26.57
2023-03-04T08:59:01.067Z,26.67
2023-03-04T09:01:28.271Z,24.57
2023-03-04T09:03:55.605Z,23.57
2023-03-04T09:06:22.562Z,24.97
2023-03-04T09:08:49.526Z,23.17
2023-03-04T09:11:17.031Z,25.57
2023-03-04T09:13:44.015Z,24.43
2023-03-04T09:16:15.489Z,23.90
2023-03-04T09:18:43.261Z,24.20
2023-03-04T09:21:10.781Z,23.83
2023-03-04T09:23:38.828Z,22.63
2023-03-04T09:26:26.531Z,24.60
2023-03-04T09:28:57.316Z,23.57
2023-03-04T09:31:26.599Z,24.73
2023-03-04T09:33:55.348Z,24.67
2023-03-04T09:36:22.694Z,23.33
2023-03-04T09:38:50.007Z,24.97
2023-03-04T09:41:35.208Z,24.63
2023-03-04T09:44:30.636Z,28.03
2023-03-04T09:47:02.410Z,27.53
2023-03-04T09:49:30.788Z,26.10
2023-03-04T09:52:34.980Z,26.50
2023-03-04T09:55:20.472Z,28.27
2023-03-04T09:58:21.556Z,24.97
2023-03-04T10:01:21.734Z,24.87
2023-03-04T10:03:59.120Z,24.20
2023-03-04T10:06:26.205Z,25.50
2023-03-04T10:09:16.870Z,25.77
2023-03-04T10:12:12.694Z,26.30
2023-03-04T10:14:51.939Z,25.97
2023-03-04T10:17:39.316Z,26.03
2023-03-04T10:20:31.614Z,26.50
2023-03-04T10:23:16.423Z,26.17
2023-03-04T10:25:53.778Z,25.37
2023-03-04T10:28:30.440Z,24.70
2023-03-04T10:31:22.340Z,24.93
2023-03-04T10:33:49.808Z,26.23
2023-03-04T10:36:38.742Z,26.03
2023-03-04T10:39:18.691Z,24.80
2023-03-04T10:42:04.692Z,25.80
2023-03-04T10:44:35.161Z,25.30
2023-03-04T10:47:03.254Z,20.97
2023-03-04T10:49:30.379Z,19.47
2023-03-04T10:52:19.718Z,17.47
2023-03-04T10:54:54.315Z,19.87
2023-03-04T10:57:35.146Z,18.43
2023-03-04T11:00:18.555Z,17.67
2023-03-04T11:02:47.574Z,18.20
2023-03-04T11:05:23.627Z,16.20
2023-03-04T11:07:57.558Z,19.03
2023-03-04T11:10:36.747Z,17.53
2023-03-04T11:13:18.786Z,16.17
2023-03-04T11:16:30.994Z,16.53
2023-03-04T11:19:12.415Z,16.87
2023-03-04T11:21:41.086Z,16.27
2023-03-04T11:24:29.109Z,16.10
2023-03-04T11:27:36.607Z,16.20
2023-03-04T11:30:31.741Z,15.60
2023-03-04T11:33:43.556Z,16.33
2023-03-04T11:36:41.001Z,17.33
2023-03-04T11:39:25.829Z,17.30
2023-03-04T11:42:03.332Z,16.53
2023-03-04T11:44:31.431Z,16.30
2023-03-04T11:47:19.412Z,16.03
2023-03-04T11:49:56.457Z,16.30
2023-03-04T11:53:00.465Z,16.23
2023-03-04T11:56:10.582Z,16.30
2023-03-04T11:59:01.688Z,15.83
2023-03-04T12:02:08.289Z,15.10
2023-03-04T12:04:56.243Z,15.50
2023-03-04T12:07:32.260Z,15.50
2023-03-04T12:10:30.300Z,16.57
2023-03-04T12:13:30.463Z,14.80
2023-03-04T12:16:21.523Z,16.00
2023-03-04T12:19:09.834Z,15.10
2023-03-04T12:22:09.214Z,13.67
2023-03-04T12:25:16.690Z,13.57
2023-03-04T12:28:08.749Z,12.27
2023-03-04T12:30:58.342Z,12.63
2023-03-04T12:33:34.251Z,13.97
2023-03-04T12:36:07.183Z,13.00
2023-03-04T12:39:00.126Z,13.87
2023-03-04T12:42:02.704Z,14.07
2023-03-04T12:44:37.002Z,14.60
2023-03-04T12:47:24.397Z,13.40
2023-03-04T12:50:22.286Z,13.17
2023-03-04T12:53:11.943Z,12.47
2023-03-04T12:55:43.514Z,13.37
2023-03-04T12:58:37.171Z,13.17
2023-03-04T13:01:15.914Z,13.53
2023-03-04T13:04:12.895Z,13.30
2023-03-04T13:07:15.847Z,11.97
2023-03-04T13:10:02.628Z,12.20
2023-03-04T13:12:56.013Z,12.30
2023-03-04T13:15:23.012Z,11.80
2023-03-04T13:18:28.771Z,12.27
2023-03-04T13:21:30.026Z,13.20
2023-03-04T13:23:58.159Z,11.97
2023-03-04T13:26:35.187Z,11.97
2023-03-04T13:29:14.195Z,11.80
2023-03-04T13:32:11.503Z,12.23
2023-03-04T13:34:51.830Z,12.77
2023-03-04T13:37:31.169Z,12.30
2023-03-04T13:40:34.210Z,12.03
2023-03-04T13:43:52.622Z,11.03
2023-03-04T13:46:19.531Z,11.63
2023-03-04T13:48:52.658Z,11.30
2023-03-04T13:51:45.015Z,11.53
2023-03-04T13:54:32.628Z,10.87
2023-03-04T13:57:18.509Z,10.80
2023-03-04T13:59:49.813Z,10.00
2023-03-04T14:02:22.766Z,9.97
2023-03-04T14:05:02.014Z,10.97
2023-03-04T14:07:36.535Z,11.80
2023-03-04T14:10:20.737Z,10.43
2023-03-04T14:12:56.870Z,10.37
2023-03-04T14:15:30.089Z,11.17
2023-03-04T14:17:59.933Z,11.10
2023-03-04T14:20:32.725Z,10.00
2023-03-04T14:23:23.149Z,10.90
2023-03-04T14:25:50.345Z,9.77
2023-03-04T14:28:20.589Z,9.90
2023-03-04T14:30:56.712Z,9.93
2023-03-04T14:33:27.979Z,9.67
2023-03-04T14:35:59.852Z,9.83
2023-03-04T14:38:41.597Z,11.27
2023-03-04T14:41:23.570Z,10.47
2023-03-04T14:44:09.320Z,9.20
2023-03-04T14:47:06.560Z,9.63
2023-03-04T14:49:37.070Z,10.47
2023-03-04T14:52:04.823Z,9.97
2023-03-04T14:54:37.703Z,10.40
2023-03-04T14:57:34.889Z,11.60
2023-03-04T15:00:21.583Z,11.73
2023-03-04T15:02:58.764Z,11.03
2023-03-04T15:05:30.027Z,10.53
2023-03-04T15:08:07.186Z,11.77
2023-03-04T15:10:38.031Z,12.17
2023-03-04T15:13:08.863Z,12.17
2023-03-04T15:15:46.771Z,12.60
2023-03-04T15:18:23.397Z,14.70
2023-03-04T15:21:03.272Z,11.53
2023-03-04T15:23:33.594Z,12.10
2023-03-04T15:26:04.262Z,12.63
2023-03-04T15:28:37.847Z,13.40
2023-03-04T15:31:06.406Z,13.67
2023-03-04T15:33:34.086Z,14.30
2023-03-04T15:36:03.149Z,15.63
2023-03-04T15:38:30.474Z,14.67
2023-03-04T15:40:59.578Z,15.20
2023-03-04T15:43:27.028Z,15.37
2023-03-04T15:45:54.218Z,15.47
2023-03-04T15:48:21.611Z,16.30
2023-03-04T15:50:52.542Z,16.23
2023-03-04T15:53:40.902Z,17.17
2023-03-04T15:56:17.597Z,15.93
2023-03-04T15:58:47.624Z,16.57
2023-03-04T16:01:17.287Z,17.47
2023-03-04T16:03:44.338Z,17.60
2023-03-04T16:06:14.872Z,15.57
2023-03-04T16:08:42.794Z,16.60
2023-03-04T16:11:21.258Z,17.50
2023-03-04T16:13:48.586Z,14.73
2023-03-04T16:16:15.915Z,14.80
2023-03-04T16:18:43.752Z,16.30
2023-03-04T16:21:16.337Z,14.53
2023-03-04T16:23:47.396Z,15.07
2023-03-04T16:26:28.384Z,14.00
2023-03-04T16:28:55.309Z,14.73
2023-03-04T16:31:23.068Z,15.73
2023-03-04T16:33:51.244Z,15.50
2023-03-04T16:36:27.365Z,15.13
2023-03-04T16:39:02.708Z,15.17
2023-03-04T16:41:33.165Z,14.30
2023-03-04T16:44:01.129Z,15.60
2023-03-04T16:46:29.948Z,16.67
2023-03-04T16:48:56.926Z,14.90
2023-03-04T16:51:24.108Z,14.70
2023-03-04T16:54:00.048Z,14.87
2023-03-04T16:56:27.609Z,16.67
2023-03-04T16:58:54.700Z,16.07
2023-03-04T17:01:28.871Z,16.30
2023-03-04T17:03:56.881Z,15.87
2023-03-04T17:06:24.474Z,15.47
2023-03-04T17:08:51.729Z,16.63
2023-03-04T17:11:23.473Z,15.63
2023-03-04T17:13:51.502Z,14.93
2023-03-04T17:16:18.822Z,16.10
2023-03-04T17:18:46.275Z,15.10
2023-03-04T17:21:20.641Z,17.47
2023-03-04T17:23:47.892Z,17.67
2023-03-04T17:26:15.970Z,18.20
2023-03-04T17:28:43.217Z,16.33
2023-03-04T17:31:17.078Z,16.33
2023-03-04T17:33:45.124Z,15.97
2023-03-04T17:36:14.223Z,15.30
2023-03-04T17:38:41.827Z,15.37
2023-03-04T17:41:17.540Z,18.23
2023-03-04T17:43:47.244Z,18.13
2023-03-04T17:46:17.020Z,15.67
2023-03-04T17:48:44.362Z,16.50
2023-03-04T17:51:12.258Z,15.47
2023-03-04T17:53:39.927Z,16.63
2023-03-04T17:56:09.172Z,16.00
2023-03-04T17:58:37.219Z,14.93
2023-03-04T18:01:17.614Z,15.00
2023-03-04T18:03:45.129Z,15.97
2023-03-04T18:06:12.642Z,14.50
2023-03-04T18:08:39.558Z,15.83
2023-03-04T18:11:06.604Z,15.23
2023-03-04T18:13:33.491Z,15.07
2023-03-04T18:16:00.466Z,16.07
2023-03-04T18:18:27.541Z,13.73
2023-03-04T18:21:01.419Z,14.67
2023-03-04T18:23:29.091Z,13.93
2023-03-04T18:25:56.217Z,14.97
2023-03-04T18:28:23.551Z,15.10
2023-03-04T18:30:54.503Z,15.23
2023-03-04T18:33:21.972Z,15.90
2023-03-04T18:35:49.031Z,13.00
2023-03-04T18:38:16.468Z,14.03
2023-03-04T18:40:44.242Z,14.63
2023-03-04T18:43:11.367Z,15.87
2023-03-04T18:45:38.329Z,15.43
2023-03-04T18:48:05.743Z,15.03
2023-03-04T18:50:32.842Z,14.60
2023-03-04T18:52:59.849Z,13.93
2023-03-04T18:55:26.852Z,14.53
2023-03-04T18:57:58.012Z,14.23
2023-03-04T19:00:25.769Z,13.47
2023-03-04T19:03:01.848Z,13.67
2023-03-04T19:05:32.514Z,13.87
2023-03-04T19:08:00.031Z,12.70
2023-03-04T19:10:27.310Z,12.60
2023-03-04T19:12:54.285Z,12.87
2023-03-04T19:15:21.265Z,13.50
2023-03-04T19:17:48.380Z,12.33
2023-03-04T19:20:16.660Z,12.70
2023-03-04T19:22:44.449Z,12.10
2023-03-04T19:25:11.945Z,13.03
2023-03-04T19:27:39.004Z,12.40
2023-03-04T19:30:07.596Z,14.80
2023-03-04T19:32:34.571Z,12.00
2023-03-04T19:35:01.871Z,12.87
2023-03-04T19:37:28.894Z,13.47
2023-03-04T19:39:56.060Z,12.53
2023-03-04T19:42:24.217Z,12.10
2023-03-04T19:44:51.543Z,13.93
2023-03-04T19:47:18.540Z,12.90
2023-03-04T19:49:45.683Z,12.47
2023-03-04T19:52:12.612Z,13.20
2023-03-04T19:54:39.832Z,11.70
2023-03-04T19:57:06.856Z,14.00
2023-03-04T19:59:35.243Z,13.43
2023-03-04T20:02:02.909Z,12.40
2023-03-04T20:04:29.971Z,11.40
2023-03-04T20:06:56.986Z,11.90
2023-03-04T20:09:23.916Z,11.80
2023-03-04T20:11:58.134Z,12.10
2023-03-04T20:14:27.393Z,13.70
2023-03-04T20:16:58.710Z,14.60
2023-03-04T20:19:25.690Z,12.13
2023-03-04T20:21:52.649Z,13.57
2023-03-04T20:24:20.041Z,13.40
2023-03-04T20:26:46.909Z,11.60
2023-03-04T20:29:13.787Z,11.97
2023-03-04T20:31:41.076Z,13.23
2023-03-04T20:34:08.740Z,13.00
2023-03-04T20:36:36.144Z,11.90
2023-03-04T20:39:08.289Z,12.67
2023-03-04T20:41:42.321Z,12.43
2023-03-04T20:44:09.284Z,12.40
2023-03-04T20:46:46.118Z,13.60
2023-03-04T20:49:26.954Z,13.03
2023-03-04T20:52:06.163Z,12.40
2023-03-04T20:54:38.497Z,12.80
2023-03-04T20:57:10.638Z,12.90
2023-03-04T20:59:39.456Z,14.67
2023-03-04T21:02:10.995Z,13.90
2023-03-04T21:04:38.005Z,14.07
2023-03-04T21:07:04.938Z,15.03
2023-03-04T21:09:31.934Z,12.10
2023-03-04T21:12:00.818Z,13.27
2023-03-04T21:14:32.364Z,13.90
2023-03-04T21:17:02.989Z,14.07
2023-03-04T21:19:36.142Z,14.13
2023-03-04T21:22:04.074Z,13.17
2023-03-04T21:24:34.397Z,11.87
2023-03-04T21:27:01.824Z,15.30
2023-03-04T21:29:28.814Z,14.07
2023-03-04T21:32:16.899Z,13.57
2023-03-04T21:34:51.788Z,15.20
2023-03-04T21:37:23.888Z,13.87
2023-03-04T21:39:51.174Z,15.70
2023-03-04T21:42:18.493Z,15.80
2023-03-04T21:44:49.080Z,15.13
2023-03-04T21:47:17.714Z,13.03
2023-03-04T21:49:44.724Z,14.30
2023-03-04T21:52:13.019Z,14.17
2023-03-04T21:54:39.966Z,16.60
2023-03-04T21:57:06.938Z,15.63
2023-03-04T21:59:34.006Z,14.17
2023-03-04T22:02:02.223Z,14.20
2023-03-04T22:04:29.229Z,14.10
2023-03-04T22:06:56.162Z,14.57
2023-03-04T22:09:23.106Z,14.73
2023-03-04T22:11:50.138Z,15.03
2023-03-04T22:14:17.102Z,14.40
2023-03-04T22:16:59.285Z,15.20
2023-03-04T22:19:30.928Z,14.63
2023-03-04T22:21:59.135Z,16.80
2023-03-04T22:24:26.362Z,14.40
2023-03-04T22:26:56.764Z,13.80
2023-03-04T22:29:23.705Z,13.47
2023-03-04T22:31:50.616Z,15.63
2023-03-04T22:34:18.767Z,14.70
2023-03-04T22:36:47.208Z,15.87
2023-03-04T22:39:20.764Z,15.03
2023-03-04T22:41:48.132Z,15.20
2023-03-04T22:44:15.217Z,17.37
2023-03-04T22:46:42.747Z,17.30
2023-03-04T22:49:12.365Z,17.37
2023-03-04T22:51:44.391Z,19.50
2023-03-04T22:54:17.043Z,16.30
2023-03-04T22:56:44.893Z,16.00
2023-03-04T22:59:12.150Z,16.40
2023-03-04T23:01:39.134Z,18.17
2023-03-04T23:04:06.034Z,18.23
2023-03-04T23:06:33.254Z,20.77
2023-03-04T23:09:00.648Z,19.30
2023-03-04T23:11:35.356Z,18.00
2023-03-04T23:14:06.338Z,14.33
2023-03-04T23:16:39.110Z,15.80
2023-03-04T23:19:07.187Z,16.70
2023-03-04T23:21:35.577Z,16.13
2023-03-04T23:24:04.024Z,16.23
2023-03-04T23:26:38.882Z,17.00
2023-03-04T23:29:11.399Z,14.63
2023-03-04T23:31:38.536Z,16.07
2023-03-04T23:34:06.926Z,14.30
2023-03-04T23:36:37.043Z,13.23
2023-03-04T23:39:06.393Z,13.87
2023-03-04T23:41:35.059Z,14.10
2023-03-04T23:44:02.886Z,12.70
2023-03-04T23:46:30.055Z,13.50
2023-03-04T23:48:57.683Z,12.93
2023-03-04T23:51:28.418Z,13.70
2023-03-04T23:53:56.428Z,12.60
2023-03-04T23:56:30.252Z,12.43
2023-03-04T23:58:58.648Z,14.37
